Time;durP1;ratioP1;P1;durP2;ratioP2;P2;SDS_P1;SDS_P2;PMS_P1;PMS_P2;Temp;Humidity;BMP_temperature;BMP_pressure;BME280_temperature;BME280_humidity;BME280_pressure;Samples;Min_cycle;Max_cycle;Signal;HPM_P1;HPM_P2
2023/08/30 00:01:20;;;;;;;2.40;2.20;;;;;;;-146.87;100.00;60295.22;4944058;28;20206;-49
2023/08/30 00:03:45;;;;;;;2.35;2.25;;;;;;;-146.87;100.00;60295.22;4941407;28;20187;-45
2023/08/30 00:06:10;;;;;;;2.70;2.50;;;;;;;-146.87;100.00;60295.22;4946232;28;20194;-45
2023/08/30 00:08:36;;;;;;;2.20;2.10;;;;;;;-146.87;100.00;60295.22;4942378;28;20573;-47
2023/08/30 00:11:04;;;;;;;3.50;2.72;;;;;;;-146.87;100.00;60295.22;4942521;28;20253;-43
2023/08/30 00:13:32;;;;;;;2.67;2.47;;;;;;;-146.87;100.00;60295.22;4944371;28;20209;-45
2023/08/30 00:15:57;;;;;;;2.95;2.15;;;;;;;-146.87;100.00;60295.22;4940918;28;20665;-43
2023/08/30 00:18:23;;;;;;;2.97;2.47;;;;;;;-146.87;100.00;60295.22;4949590;28;20281;-47
2023/08/30 00:20:49;;;;;;;2.30;2.10;;;;;;;-146.87;100.00;60295.22;4943784;28;20277;-42
2023/08/30 00:23:14;;;;;;;3.70;2.78;;;;;;;-146.87;100.00;60295.22;4950377;28;20186;-42
2023/08/30 00:25:40;;;;;;;2.28;2.10;;;;;;;-146.87;100.00;60295.22;4950460;28;20680;-44
2023/08/30 00:28:06;;;;;;;2.63;2.42;;;;;;;-146.87;100.00;60295.22;4954142;28;20179;-43
2023/08/30 00:30:33;;;;;;;3.00;2.30;;;;;;;-146.87;100.00;60295.22;4949192;28;20365;-44
2023/08/30 00:32:59;;;;;;;2.40;2.20;;;;;;;-146.87;100.00;60295.22;4949071;28;20258;-44
2023/08/30 00:35:24;;;;;;;3.00;2.50;;;;;;;-146.87;100.00;60295.22;4948848;28;20174;-49
2023/08/30 00:37:49;;;;;;;4.30;2.80;;;;;;;-146.87;100.00;60295.22;4949187;28;20277;-42
2023/08/30 00:40:15;;;;;;;3.50;2.45;;;;;;;-146.87;100.00;60295.22;4949548;28;20390;-44
2023/08/30 00:42:41;;;;;;;3.33;3.03;;;;;;;-146.87;100.00;60295.22;4950243;28;20684;-42
2023/08/30 00:45:07;;;;;;;4.32;2.95;;;;;;;-146.87;100.00;60295.22;4948652;28;20178;-48
2023/08/30 00:47:34;;;;;;;2.95;2.75;;;;;;;-146.87;100.00;60295.22;4957819;28;20218;-43
2023/08/30 00:50:00;;;;;;;4.22;2.83;;;;;;;-146.87;100.00;60295.22;4950487;28;20206;-45
2023/08/30 00:52:26;;;;;;;3.22;2.60;;;;;;;-146.87;100.00;60295.22;4950823;28;20613;-43
2023/08/30 00:54:52;;;;;;;3.05;2.78;;;;;;;-146.87;100.00;60295.22;4950463;28;20186;-46
2023/08/30 00:57:17;;;;;;;2.80;2.60;;;;;;;-146.87;100.00;60295.22;4956595;28;20182;-43
2023/08/30 00:59:43;;;;;;;4.07;3.38;;;;;;;-146.87;100.00;60295.22;4949758;28;20219;-43
2023/08/30 01:02:09;;;;;;;4.20;3.00;;;;;;;-146.87;100.00;60295.22;4950173;28;20278;-46
2023/08/30 01:04:34;;;;;;;3.55;3.25;;;;;;;-146.87;100.00;60295.22;4948717;28;20733;-47
2023/08/30 01:07:00;;;;;;;3.42;2.92;;;;;;;-146.87;100.00;60295.22;4960010;28;20645;-45
2023/08/30 01:09:26;;;;;;;3.28;2.97;;;;;;;-146.87;100.00;60295.22;4953559;28;20210;-43
2023/08/30 01:12:12;;;;;;;4.65;3.15;;;;;;;-146.87;100.00;60295.22;4956327;28;20174;-43
2023/08/30 01:14:44;;;;;;;3.20;3.00;;;;;;;-146.87;100.00;60295.22;4942593;28;20214;-42
2023/08/30 01:17:14;;;;;;;3.83;3.35;;;;;;;-146.87;100.00;60295.22;4948849;28;20621;-45
2023/08/30 01:20:18;;;;;;;4.07;3.78;;;;;;;-146.87;100.00;60295.22;4941954;28;20198;-43
2023/08/30 01:23:02;;;;;;;4.57;3.08;;;;;;;-146.87;100.00;60295.22;4949206;28;20267;-49
2023/08/30 01:26:06;;;;;;;3.67;3.20;;;;;;;-146.87;100.00;60295.22;4950355;28;20186;-47
2023/08/30 01:28:33;;;;;;;3.38;3.08;;;;;;;-146.87;100.00;60295.22;4950462;28;20186;-43
2023/08/30 01:31:00;;;;;;;3.78;3.03;;;;;;;-146.87;100.00;60295.22;4956477;28;20276;-44
2023/08/30 01:33:29;;;;;;;4.28;3.15;;;;;;;-146.87;100.00;60295.22;4950517;28;20267;-43
2023/08/30 01:35:58;;;;;;;3.88;3.45;;;;;;;-146.87;100.00;60295.22;4949005;28;20182;-46
2023/08/30 01:38:26;;;;;;;4.22;3.40;;;;;;;-146.87;100.00;60295.22;4956131;28;20178;-46
2023/08/30 01:40:53;;;;;;;3.42;3.13;;;;;;;-146.87;100.00;60295.22;4948855;28;20202;-44
2023/08/30 01:43:20;;;;;;;4.20;3.50;;;;;;;-146.87;100.00;60295.22;4950261;28;20193;-45
2023/08/30 01:45:49;;;;;;;4.57;4.18;;;;;;;-146.87;100.00;60295.22;4949874;28;20195;-45
2023/08/30 01:48:16;;;;;;;4.68;4.28;;;;;;;-146.87;100.00;60295.22;4949797;28;20614;-45
2023/08/30 01:50:43;;;;;;;4.43;3.88;;;;;;;-146.87;100.00;60295.22;4950040;28;20230;-47
2023/08/30 01:53:11;;;;;;;6.75;4.07;;;;;;;-146.87;100.00;60295.22;4957144;28;20190;-46
2023/08/30 01:55:37;;;;;;;3.95;3.65;;;;;;;-146.87;100.00;60295.22;4950402;29;20202;-48
2023/08/30 01:58:03;;;;;;;5.07;4.15;;;;;;;-146.87;100.00;60295.22;4948676;29;20190;-47
2023/08/30 02:00:29;;;;;;;5.20;3.90;;;;;;;-146.87;100.00;60295.22;4949314;28;20210;-49
2023/08/30 02:02:56;;;;;;;4.10;3.70;;;;;;;-146.87;100.00;60295.22;4953809;28;20207;-41
2023/08/30 02:05:21;;;;;;;4.93;4.45;;;;;;;-146.87;100.00;60295.22;4954581;28;20202;-45
2023/08/30 02:07:55;;;;;;;4.57;3.83;;;;;;;-146.87;100.00;60295.22;4965277;28;20264;-45
2023/08/30 02:10:31;;;;;;;4.43;4.13;;;;;;;-146.87;100.00;60295.22;4952595;29;20307;-42
2023/08/30 02:12:58;;;;;;;4.80;3.88;;;;;;;-146.87;100.00;60295.22;4952398;28;20182;-47
2023/08/30 02:15:26;;;;;;;4.00;3.60;;;;;;;-146.87;100.00;60295.22;4936552;29;20214;-47
2023/08/30 02:17:52;;;;;;;4.93;4.35;;;;;;;-146.87;100.00;60295.22;4952294;29;20187;-50
2023/08/30 02:20:19;;;;;;;4.07;3.70;;;;;;;-146.87;100.00;60295.22;4952242;28;20240;-48
2023/08/30 02:22:44;;;;;;;5.72;3.55;;;;;;;-146.87;100.00;60295.22;4957522;28;20301;-47
2023/08/30 02:25:10;;;;;;;3.67;3.38;;;;;;;-146.87;100.00;60295.22;4956423;28;20289;-43
2023/08/30 02:27:35;;;;;;;3.65;3.35;;;;;;;-146.87;100.00;60295.22;4952645;28;20401;-45
2023/08/30 02:30:02;;;;;;;5.05;3.97;;;;;;;-146.87;100.00;60295.22;4959168;28;20204;-49
2023/08/30 02:32:28;;;;;;;5.00;4.38;;;;;;;-146.87;100.00;60295.22;4953887;28;20579;-45
2023/08/30 02:34:54;;;;;;;5.25;4.32;;;;;;;-146.87;100.00;60295.22;4953421;28;20183;-48
2023/08/30 02:37:20;;;;;;;5.57;4.30;;;;;;;-146.87;100.00;60295.22;4961287;28;20649;-46
2023/08/30 02:39:45;;;;;;;4.82;3.92;;;;;;;-146.87;100.00;60295.22;4953003;28;20304;-46
2023/08/30 02:42:11;;;;;;;4.05;3.83;;;;;;;-146.87;100.00;60295.22;4952798;28;20320;-45
2023/08/30 02:44:36;;;;;;;7.32;4.40;;;;;;;-146.87;100.00;60295.22;4953469;28;20649;-48
2023/08/30 02:47:02;;;;;;;7.30;4.57;;;;;;;-146.87;100.00;60295.22;4966850;28;20209;-51
2023/08/30 02:49:27;;;;;;;5.53;5.07;;;;;;;-146.87;100.00;60295.22;4971066;28;20198;-45
2023/08/30 02:51:53;;;;;;;6.47;5.18;;;;;;;-146.87;100.00;60295.22;4959470;28;20182;-44
2023/08/30 02:54:19;;;;;;;5.88;4.93;;;;;;;-146.87;100.00;60295.22;4953003;28;20199;-49
2023/08/30 02:56:44;;;;;;;5.55;4.97;;;;;;;-146.87;100.00;60295.22;4951556;29;20175;-44
2023/08/30 02:59:11;;;;;;;4.78;4.38;;;;;;;-146.87;100.00;60295.22;4966170;28;20237;-45
2023/08/30 03:01:38;;;;;;;6.20;5.10;;;;;;;-146.87;100.00;60295.22;4952258;28;20215;-46
2023/08/30 03:04:10;;;;;;;7.40;5.45;;;;;;;-146.87;100.00;60295.22;4951167;29;20201;-48
2023/08/30 03:06:35;;;;;;;6.63;6.05;;;;;;;-146.87;100.00;60295.22;4952942;28;20653;-50
2023/08/30 03:09:02;;;;;;;8.00;5.63;;;;;;;-146.87;100.00;60295.22;4951393;29;20187;-44
2023/08/30 03:11:29;;;;;;;5.97;5.47;;;;;;;-146.87;100.00;60295.22;4960111;28;20632;-51
2023/08/30 03:13:55;;;;;;;5.78;4.93;;;;;;;-146.87;100.00;60295.22;4961638;28;20281;-44
2023/08/30 03:16:21;;;;;;;5.80;5.22;;;;;;;-146.87;100.00;60295.22;4954395;28;20521;-46
2023/08/30 03:18:47;;;;;;;5.60;5.10;;;;;;;-146.87;100.00;60295.22;4933526;29;20564;-44
2023/08/30 03:21:13;;;;;;;6.22;5.65;;;;;;;-146.87;100.00;60295.22;4933671;29;20233;-47
2023/08/30 03:23:41;;;;;;;6.70;6.10;;;;;;;-146.87;100.00;60295.22;4942258;29;20195;-48
2023/08/30 03:26:09;;;;;;;6.75;6.15;;;;;;;-146.87;100.00;60295.22;4951051;29;20668;-43
2023/08/30 03:28:35;;;;;;;6.85;6.25;;;;;;;-146.87;100.00;60295.22;4951119;29;20257;-44
2023/08/30 03:31:01;;;;;;;6.85;6.22;;;;;;;-146.87;100.00;60295.22;4956049;28;20668;-46
2023/08/30 03:33:26;;;;;;;7.13;6.43;;;;;;;-146.87;100.00;60295.22;4969811;28;20186;-45
2023/08/30 03:35:51;;;;;;;9.80;6.22;;;;;;;-146.87;100.00;60295.22;4963448;28;20190;-48
2023/08/30 03:38:17;;;;;;;6.63;6.03;;;;;;;-146.87;100.00;60295.22;4950760;29;20233;-45
2023/08/30 03:40:43;;;;;;;6.65;6.05;;;;;;;-146.87;100.00;60295.22;4953170;28;20244;-43
2023/08/30 03:43:08;;;;;;;5.80;5.30;;;;;;;-146.87;100.00;60295.22;4957086;28;20215;-44
2023/08/30 03:45:36;;;;;;;7.55;6.75;;;;;;;-146.87;100.00;60295.22;4950700;29;20190;-50
2023/08/30 03:48:01;;;;;;;6.22;5.72;;;;;;;-146.87;100.00;60295.22;4965845;28;20167;-45
2023/08/30 03:50:27;;;;;;;6.30;5.55;;;;;;;-146.87;100.00;60295.22;4950560;29;20194;-45
2023/08/30 03:52:53;;;;;;;6.50;5.55;;;;;;;-146.87;100.00;60295.22;4950437;29;20672;-44
2023/08/30 03:55:18;;;;;;;6.35;5.68;;;;;;;-146.87;100.00;60295.22;4949494;29;20178;-42
2023/08/30 03:57:44;;;;;;;8.73;7.30;;;;;;;-146.87;100.00;60295.22;4950352;29;20273;-44
2023/08/30 04:00:10;;;;;;;8.93;8.02;;;;;;;-146.87;100.00;60295.22;4951648;28;20366;-46
2023/08/30 04:02:42;;;;;;;9.70;8.77;;;;;;;-146.87;100.00;60295.22;4950544;29;20214;-46
2023/08/30 04:05:09;;;;;;;11.85;10.18;;;;;;;-146.87;100.00;60295.22;4950284;29;20241;-46
2023/08/30 04:07:35;;;;;;;13.55;11.25;;;;;;;-146.87;100.00;60295.22;4950204;28;20589;-46
2023/08/30 04:10:05;;;;;;;14.00;10.85;;;;;;;-146.87;100.00;60295.22;4958022;28;20301;-42
2023/08/30 04:12:31;;;;;;;10.30;9.30;;;;;;;-146.87;100.00;60295.22;4951650;28;20315;-45
2023/08/30 04:14:57;;;;;;;10.07;9.07;;;;;;;-146.87;100.00;60295.22;4949831;29;20281;-46
2023/08/30 04:17:23;;;;;;;12.65;8.95;;;;;;;-146.87;100.00;60295.22;4951767;28;20254;-46
2023/08/30 04:19:51;;;;;;;14.55;10.63;;;;;;;-146.87;100.00;60295.22;4951283;28;20744;-48
2023/08/30 04:22:17;;;;;;;11.07;10.07;;;;;;;-146.87;100.00;60295.22;4949955;29;20235;-47
2023/08/30 04:24:46;;;;;;;10.48;9.38;;;;;;;-146.87;100.00;60295.22;4956899;28;20293;-53
2023/08/30 04:27:12;;;;;;;12.15;10.85;;;;;;;-146.87;100.00;60295.22;4954067;28;20174;-47
2023/08/30 04:29:37;;;;;;;11.00;9.98;;;;;;;-146.87;100.00;60295.22;4960644;28;20340;-52
2023/08/30 04:32:04;;;;;;;10.85;9.75;;;;;;;-146.87;100.00;60295.22;4956041;28;20179;-44
2023/08/30 04:34:30;;;;;;;10.43;9.48;;;;;;;-146.87;100.00;60295.22;4949429;28;20182;-48
2023/08/30 04:36:57;;;;;;;10.25;9.25;;;;;;;-146.87;100.00;60295.22;4950769;28;20178;-45
2023/08/30 04:39:22;;;;;;;11.48;10.02;;;;;;;-146.87;100.00;60295.22;4957195;28;20569;-49
2023/08/30 04:41:49;;;;;;;12.00;10.80;;;;;;;-146.87;100.00;60295.22;4949131;28;20213;-44
2023/08/30 04:44:16;;;;;;;11.80;10.60;;;;;;;-146.87;100.00;60295.22;4957471;28;20186;-50
2023/08/30 04:46:41;;;;;;;12.02;10.77;;;;;;;-146.87;100.00;60295.22;4950559;28;20174;-47
2023/08/30 04:49:07;;;;;;;12.40;11.18;;;;;;;-146.87;100.00;60295.22;4962164;28;20205;-52
2023/08/30 04:51:33;;;;;;;13.48;11.55;;;;;;;-146.87;100.00;60295.22;4969984;28;20253;-49
2023/08/30 04:53:59;;;;;;;12.65;11.40;;;;;;;-146.87;100.00;60295.22;4956237;28;20289;-45
2023/08/30 04:56:24;;;;;;;11.70;10.65;;;;;;;-146.87;100.00;60295.22;4949321;29;20178;-46
2023/08/30 04:58:50;;;;;;;12.70;11.50;;;;;;;-146.87;100.00;60295.22;4965519;28;20586;-46
2023/08/30 05:01:18;;;;;;;12.82;11.52;;;;;;;-146.87;100.00;60295.22;4950348;28;20247;-52
2023/08/30 05:03:47;;;;;;;12.52;10.75;;;;;;;-146.87;100.00;60295.22;4948840;29;20241;-47
2023/08/30 05:06:16;;;;;;;15.20;13.27;;;;;;;-146.87;100.00;60295.22;4949352;29;20619;-49
2023/08/30 05:08:42;;;;;;;15.73;13.75;;;;;;;-146.87;100.00;60295.22;4948973;29;20693;-45
2023/08/30 05:11:08;;;;;;;12.77;11.02;;;;;;;-146.87;100.00;60295.22;4955129;28;20285;-44
2023/08/30 05:13:35;;;;;;;12.90;11.70;;;;;;;-146.87;100.00;60295.22;4956932;28;20751;-46
2023/08/30 05:16:01;;;;;;;11.88;10.57;;;;;;;-146.87;100.00;60295.22;4949082;29;20261;-49
2023/08/30 05:18:27;;;;;;;11.77;10.68;;;;;;;-146.87;100.00;60295.22;4950484;28;20171;-51
2023/08/30 05:20:52;;;;;;;13.40;11.98;;;;;;;-146.87;100.00;60295.22;4948919;29;20324;-45
2023/08/30 05:23:18;;;;;;;12.00;10.52;;;;;;;-146.87;100.00;60295.22;4948878;29;20190;-46
2023/08/30 05:25:43;;;;;;;12.68;11.35;;;;;;;-146.87;100.00;60295.22;4949083;29;20214;-51
2023/08/30 05:28:09;;;;;;;12.93;11.18;;;;;;;-146.87;100.00;60295.22;4949247;29;20182;-44
2023/08/30 05:30:35;;;;;;;12.82;11.52;;;;;;;-146.87;100.00;60295.22;4949082;28;20293;-44
2023/08/30 05:33:13;;;;;;;12.80;11.43;;;;;;;-146.87;100.00;60295.22;4960487;28;20185;-44
2023/08/30 05:36:06;;;;;;;15.25;11.70;;;;;;;-146.87;100.00;60295.22;4966775;28;20671;-50
2023/08/30 05:38:50;;;;;;;12.48;10.60;;;;;;;-146.87;100.00;60295.22;4954013;29;20189;-51
2023/08/30 05:41:31;;;;;;;10.43;9.43;;;;;;;-146.87;100.00;60295.22;4968722;28;20199;-46
2023/08/30 05:43:58;;;;;;;11.48;10.27;;;;;;;-146.87;100.00;60295.22;4960627;28;20573;-52
2023/08/30 05:46:23;;;;;;;13.82;11.13;;;;;;;-146.87;100.00;60295.22;4951409;29;20241;-47
2023/08/30 05:48:49;;;;;;;12.85;11.55;;;;;;;-146.87;100.00;60295.22;4962582;28;20190;-50
2023/08/30 05:51:15;;;;;;;11.68;10.57;;;;;;;-146.87;100.00;60295.22;4958308;28;20219;-45
2023/08/30 05:53:40;;;;;;;11.80;10.63;;;;;;;-146.87;100.00;60295.22;4966971;28;20220;-45
2023/08/30 05:56:06;;;;;;;12.82;11.57;;;;;;;-146.87;100.00;60295.22;4960648;28;20194;-49
2023/08/30 05:58:32;;;;;;;12.07;10.88;;;;;;;-146.87;100.00;60295.22;4952459;29;20704;-46
2023/08/30 06:00:59;;;;;;;13.88;10.95;;;;;;;-146.87;100.00;60295.22;4951133;28;20190;-46
2023/08/30 06:03:25;;;;;;;15.00;11.93;;;;;;;-146.87;100.00;60295.22;4953909;28;20179;-44
2023/08/30 06:05:50;;;;;;;13.10;10.55;;;;;;;-146.87;100.00;60295.22;4953747;28;20646;-50
2023/08/30 06:08:17;;;;;;;13.20;10.57;;;;;;;-146.87;100.00;60295.22;4962572;28;20198;-45
2023/08/30 06:10:43;;;;;;;13.23;11.20;;;;;;;-146.87;100.00;60295.22;4953500;28;20609;-50
2023/08/30 06:13:08;;;;;;;11.82;10.63;;;;;;;-146.87;100.00;60295.22;4953707;29;20179;-44
2023/08/30 06:15:35;;;;;;;13.45;10.05;;;;;;;-146.87;100.00;60295.22;4963652;28;20190;-45
2023/08/30 06:18:01;;;;;;;12.15;9.75;;;;;;;-146.87;100.00;60295.22;4945864;29;20199;-43
2023/08/30 06:20:26;;;;;;;10.40;9.38;;;;;;;-146.87;100.00;60295.22;4953634;28;20202;-44
2023/08/30 06:22:52;;;;;;;10.93;9.82;;;;;;;-146.87;100.00;60295.22;4952858;28;20294;-51
2023/08/30 06:25:17;;;;;;;12.75;9.57;;;;;;;-146.87;100.00;60295.22;4952986;28;20199;-48
2023/08/30 06:27:55;;;;;;;14.57;10.15;;;;;;;-146.87;100.00;60295.22;4952279;29;20185;-44
2023/08/30 06:30:20;;;;;;;13.20;10.00;;;;;;;-146.87;100.00;60295.22;4959577;28;20613;-50
2023/08/30 06:32:46;;;;;;;11.50;9.77;;;;;;;-146.87;100.00;60295.22;4953913;28;20206;-45
2023/08/30 06:35:11;;;;;;;12.05;10.52;;;;;;;-146.87;100.00;60295.22;4948619;28;20198;-49
2023/08/30 06:37:37;;;;;;;13.07;9.90;;;;;;;-146.87;100.00;60295.22;4949895;28;20202;-50
2023/08/30 06:40:03;;;;;;;14.13;10.13;;;;;;;-146.87;100.00;60295.22;4952052;29;20667;-45
2023/08/30 06:42:29;;;;;;;11.55;10.25;;;;;;;-146.87;100.00;60295.22;4952985;28;20202;-46
2023/08/30 06:44:54;;;;;;;15.32;10.20;;;;;;;-146.87;100.00;60295.22;4952710;28;20557;-45
2023/08/30 06:47:20;;;;;;;14.52;10.80;;;;;;;-146.87;100.00;60295.22;4952526;28;20214;-46
2023/08/30 06:49:46;;;;;;;12.77;10.65;;;;;;;-146.87;100.00;60295.22;4952058;28;20216;-46
2023/08/30 06:52:11;;;;;;;11.65;10.05;;;;;;;-146.87;100.00;60295.22;4952434;28;20182;-44
2023/08/30 06:54:37;;;;;;;11.80;9.95;;;;;;;-146.87;100.00;60295.22;4968446;28;20190;-47
2023/08/30 06:57:03;;;;;;;12.40;10.27;;;;;;;-146.87;100.00;60295.22;4971849;28;20178;-45
2023/08/30 06:59:28;;;;;;;12.93;10.32;;;;;;;-146.87;100.00;60295.22;4971537;28;20205;-51
2023/08/30 07:01:54;;;;;;;12.77;9.25;;;;;;;-146.87;100.00;60295.22;4954058;28;20216;-44
2023/08/30 07:04:20;;;;;;;14.10;9.88;;;;;;;-146.87;100.00;60295.22;4952682;28;20204;-44
2023/08/30 07:06:46;;;;;;;13.85;9.88;;;;;;;-146.87;100.00;60295.22;4952764;28;20637;-44
2023/08/30 07:09:11;;;;;;;12.07;9.57;;;;;;;-146.87;100.00;60295.22;4952600;29;20209;-48
2023/08/30 07:11:44;;;;;;;13.50;9.07;;;;;;;-146.87;100.00;60295.22;4960527;28;20565;-44
2023/08/30 07:14:09;;;;;;;13.80;10.48;;;;;;;-146.87;100.00;60295.22;4961601;28;20191;-50
2023/08/30 07:16:35;;;;;;;12.07;10.10;;;;;;;-146.87;100.00;60295.22;4960673;28;20217;-45
2023/08/30 07:19:02;;;;;;;12.57;9.13;;;;;;;-146.87;100.00;60295.22;4952257;29;20668;-46
2023/08/30 07:21:27;;;;;;;12.70;9.65;;;;;;;-146.87;100.00;60295.22;4960321;28;20818;-44
2023/08/30 07:23:53;;;;;;;11.68;10.10;;;;;;;-146.87;100.00;60295.22;4960384;28;20179;-46
2023/08/30 07:26:18;;;;;;;10.60;8.98;;;;;;;-146.87;100.00;60295.22;4957550;28;20197;-51
2023/08/30 07:28:44;;;;;;;9.52;8.60;;;;;;;-146.87;100.00;60295.22;4963121;28;20186;-46
2023/08/30 07:31:09;;;;;;;10.38;9.35;;;;;;;-146.87;100.00;60295.22;4952358;28;20285;-43
2023/08/30 07:33:35;;;;;;;9.88;8.40;;;;;;;-146.87;100.00;60295.22;4952406;29;20210;-52
2023/08/30 07:36:01;;;;;;;11.25;8.25;;;;;;;-146.87;100.00;60295.22;4971111;28;20182;-49
2023/08/30 07:38:26;;;;;;;8.85;7.97;;;;;;;-146.87;100.00;60295.22;4957516;28;20194;-45
2023/08/30 07:40:53;;;;;;;8.18;7.38;;;;;;;-146.87;100.00;60295.22;4969670;28;20233;-45
2023/08/30 07:43:19;;;;;;;8.30;7.15;;;;;;;-146.87;100.00;60295.22;4971576;28;20614;-45
2023/08/30 07:45:45;;;;;;;8.48;6.80;;;;;;;-146.87;100.00;60295.22;4969059;28;20215;-46
2023/08/30 07:48:11;;;;;;;8.23;6.72;;;;;;;-146.87;100.00;60295.22;4957616;28;20186;-45
2023/08/30 07:50:36;;;;;;;7.57;6.28;;;;;;;-146.87;100.00;60295.22;4948126;28;20207;-46
2023/08/30 07:53:02;;;;;;;6.07;5.45;;;;;;;-146.87;100.00;60295.22;4951257;28;20187;-49
2023/08/30 07:55:28;;;;;;;5.93;5.35;;;;;;;-146.87;100.00;60295.22;4959971;28;20561;-44
2023/08/30 07:57:53;;;;;;;6.50;5.53;;;;;;;-146.87;100.00;60295.22;4951540;28;20519;-46
2023/08/30 08:00:19;;;;;;;15.63;5.30;;;;;;;-146.87;100.00;60295.22;4948392;28;20214;-49
2023/08/30 08:02:44;;;;;;;6.45;5.13;;;;;;;-146.87;100.00;60295.22;4958000;28;20195;-44
2023/08/30 08:05:10;;;;;;;7.03;4.72;;;;;;;-146.87;100.00;60295.22;4950896;28;20285;-45
2023/08/30 08:07:40;;;;;;;4.85;4.45;;;;;;;-146.87;100.00;60295.22;4953025;28;20278;-48
2023/08/30 08:10:07;;;;;;;7.07;4.68;;;;;;;-146.87;100.00;60295.22;4959363;28;20320;-49
2023/08/30 08:12:33;;;;;;;6.68;4.63;;;;;;;-146.87;100.00;60295.22;4956069;28;20597;-46
2023/08/30 08:14:58;;;;;;;6.20;4.57;;;;;;;-146.87;100.00;60295.22;4959878;28;20257;-45
2023/08/30 08:17:24;;;;;;;4.70;4.00;;;;;;;-146.87;100.00;60295.22;4951114;28;20265;-48
2023/08/30 08:19:50;;;;;;;5.47;4.95;;;;;;;-146.87;100.00;60295.22;4951262;28;20217;-42
2023/08/30 08:22:16;;;;;;;4.82;4.43;;;;;;;-146.87;100.00;60295.22;4951491;28;20219;-44
2023/08/30 08:24:43;;;;;;;7.60;4.05;;;;;;;-146.87;100.00;60295.22;4958941;28;20256;-45
2023/08/30 08:27:09;;;;;;;5.55;4.22;;;;;;;-146.87;100.00;60295.22;4950932;28;20206;-50
2023/08/30 08:29:35;;;;;;;4.32;3.90;;;;;;;-146.87;100.00;60295.22;4950697;28;20206;-46
2023/08/30 08:32:00;;;;;;;4.40;4.00;;;;;;;-146.87;100.00;60295.22;4950891;28;20183;-46
2023/08/30 08:34:26;;;;;;;4.38;3.78;;;;;;;-146.87;100.00;60295.22;4951385;28;20693;-46
2023/08/30 08:36:51;;;;;;;4.47;4.07;;;;;;;-146.87;100.00;60295.22;4950903;28;20562;-48
2023/08/30 08:39:18;;;;;;;4.85;3.30;;;;;;;-146.87;100.00;60295.22;4950622;29;20206;-48
2023/08/30 08:41:44;;;;;;;5.53;3.63;;;;;;;-146.87;100.00;60295.22;4952164;28;20213;-44
2023/08/30 08:44:12;;;;;;;4.90;4.07;;;;;;;-146.87;100.00;60295.22;4950580;28;20615;-49
2023/08/30 08:46:38;;;;;;;6.68;4.32;;;;;;;-146.87;100.00;60295.22;4950721;28;20187;-48
2023/08/30 08:49:15;;;;;;;5.82;4.10;;;;;;;-146.87;100.00;60295.22;4950233;28;20194;-44
2023/08/30 08:51:42;;;;;;;4.63;4.18;;;;;;;-146.87;100.00;60295.22;4950597;28;20187;-49
2023/08/30 08:54:09;;;;;;;4.93;4.38;;;;;;;-146.87;100.00;60295.22;4950514;28;20562;-45
2023/08/30 08:56:36;;;;;;;5.22;3.78;;;;;;;-146.87;100.00;60295.22;4950735;28;20329;-46
2023/08/30 08:59:02;;;;;;;3.80;3.50;;;;;;;-146.87;100.00;60295.22;4950376;28;20281;-47
2023/08/30 09:01:28;;;;;;;6.75;4.03;;;;;;;-146.87;100.00;60295.22;4956145;28;20296;-49
2023/08/30 09:03:54;;;;;;;5.30;3.90;;;;;;;-146.87;100.00;60295.22;4952770;28;20190;-49
2023/08/30 09:06:21;;;;;;;5.53;3.72;;;;;;;-146.87;100.00;60295.22;4950701;28;20288;-46
2023/08/30 09:08:46;;;;;;;5.05;3.60;;;;;;;-146.87;100.00;60295.22;4947936;28;20209;-45
2023/08/30 09:11:12;;;;;;;4.13;3.78;;;;;;;-146.87;100.00;60295.22;4944371;28;20205;-49
2023/08/30 09:13:37;;;;;;;4.13;3.83;;;;;;;-146.87;100.00;60295.22;4955759;28;20252;-45
2023/08/30 09:16:12;;;;;;;4.65;3.22;;;;;;;-146.87;100.00;60295.22;4958595;28;20194;-45
2023/08/30 09:18:38;;;;;;;3.40;3.10;;;;;;;-146.87;100.00;60295.22;4946180;28;20570;-45
2023/08/30 09:21:10;;;;;;;3.63;3.33;;;;;;;-146.87;100.00;60295.22;4953206;28;20198;-46
2023/08/30 09:23:36;;;;;;;3.92;3.63;;;;;;;-146.87;100.00;60295.22;4956950;28;20248;-45
2023/08/30 09:26:02;;;;;;;5.50;3.75;;;;;;;-146.87;100.00;60295.22;4960273;28;20201;-43
2023/08/30 09:28:28;;;;;;;4.20;3.80;;;;;;;-146.87;100.00;60295.22;4950540;28;20187;-46
2023/08/30 09:30:56;;;;;;;6.05;3.90;;;;;;;-146.87;100.00;60295.22;4959220;28;20534;-47
2023/08/30 09:33:33;;;;;;;4.00;3.38;;;;;;;-146.87;100.00;60295.22;4954034;28;20185;-49
2023/08/30 09:35:59;;;;;;;4.25;3.70;;;;;;;-146.87;100.00;60295.22;4948377;28;20211;-47
2023/08/30 09:38:25;;;;;;;4.50;4.10;;;;;;;-146.87;100.00;60295.22;4950204;28;20191;-47
2023/08/30 09:40:51;;;;;;;3.47;3.17;;;;;;;-146.87;100.00;60295.22;4966118;28;20676;-48
2023/08/30 09:43:24;;;;;;;9.32;3.60;;;;;;;-146.87;100.00;60295.22;4949445;28;20210;-46
2023/08/30 09:45:50;;;;;;;4.43;3.40;;;;;;;-146.87;100.00;60295.22;4949865;28;20187;-43
2023/08/30 09:48:27;;;;;;;5.25;3.67;;;;;;;-146.87;100.00;60295.22;4946112;28;20623;-49
2023/08/30 09:50:56;;;;;;;4.38;3.80;;;;;;;-146.87;100.00;60295.22;4957314;28;20446;-43
2023/08/30 09:53:26;;;;;;;3.30;3.10;;;;;;;-146.87;100.00;60295.22;4950120;28;20208;-44
2023/08/30 09:55:53;;;;;;;3.53;3.22;;;;;;;-146.87;100.00;60295.22;4951946;28;20726;-47
2023/08/30 09:58:21;;;;;;;4.07;2.92;;;;;;;-146.87;100.00;60295.22;4958191;28;20523;-45
2023/08/30 10:00:47;;;;;;;5.60;3.40;;;;;;;-146.87;100.00;60295.22;4950296;28;20210;-46
2023/08/30 10:03:14;;;;;;;4.07;3.67;;;;;;;-146.87;100.00;60295.22;4958001;28;20569;-45
2023/08/30 10:05:41;;;;;;;4.00;3.60;;;;;;;-146.87;100.00;60295.22;4949264;28;20194;-51
2023/08/30 10:08:09;;;;;;;4.20;3.75;;;;;;;-146.87;100.00;60295.22;4953809;28;20170;-45
2023/08/30 10:10:35;;;;;;;3.92;3.63;;;;;;;-146.87;100.00;60295.22;4950349;28;20246;-46
2023/08/30 10:13:01;;;;;;;6.00;4.30;;;;;;;-146.87;100.00;60295.22;4950121;28;20167;-50
2023/08/30 10:15:33;;;;;;;4.95;3.90;;;;;;;-146.87;100.00;60295.22;4950002;28;20218;-46
2023/08/30 10:18:00;;;;;;;7.25;5.10;;;;;;;-146.87;100.00;60295.22;4955323;28;20190;-42
2023/08/30 10:20:27;;;;;;;5.82;5.00;;;;;;;-146.87;100.00;60295.22;4962436;28;20225;-47
2023/08/30 10:22:55;;;;;;;6.70;4.78;;;;;;;-146.87;100.00;60295.22;4962688;28;20563;-45
2023/08/30 10:25:25;;;;;;;8.57;5.80;;;;;;;-146.87;100.00;60295.22;4961242;28;20215;-43
2023/08/30 10:27:52;;;;;;;5.95;5.38;;;;;;;-146.87;100.00;60295.22;4958344;28;20260;-43
2023/08/30 10:30:21;;;;;;;9.52;5.53;;;;;;;-146.87;100.00;60295.22;4952170;28;20234;-49
2023/08/30 10:32:46;;;;;;;6.25;5.70;;;;;;;-146.87;100.00;60295.22;4953632;28;20681;-44
2023/08/30 10:35:14;;;;;;;6.60;5.57;;;;;;;-146.87;100.00;60295.22;4953272;28;20202;-45
2023/08/30 10:37:40;;;;;;;9.85;5.93;;;;;;;-146.87;100.00;60295.22;4953633;28;20228;-42
2023/08/30 10:40:07;;;;;;;6.47;5.68;;;;;;;-146.87;100.00;60295.22;4955016;28;20203;-45
2023/08/30 10:42:32;;;;;;;7.88;6.30;;;;;;;-146.87;100.00;60295.22;4959800;28;20207;-45
2023/08/30 10:45:06;;;;;;;5.13;4.35;;;;;;;-146.87;100.00;60295.22;4953094;28;20555;-45
2023/08/30 10:47:35;;;;;;;7.07;5.70;;;;;;;-146.87;100.00;60295.22;4962449;28;20752;-46
2023/08/30 10:50:06;;;;;;;8.00;6.20;;;;;;;-146.87;100.00;60295.22;4950358;28;20209;-46
2023/08/30 10:52:32;;;;;;;7.57;6.68;;;;;;;-146.87;100.00;60295.22;4945881;28;20186;-48
2023/08/30 10:55:25;;;;;;;7.80;7.00;;;;;;;-146.87;100.00;60295.22;4944493;28;20174;-48
2023/08/30 11:00:21;;;;;;;6.22;5.60;;;;;;;-146.87;100.00;60295.22;4968755;28;20221;-48
2023/08/30 11:02:49;;;;;;;7.53;6.82;;;;;;;-146.87;100.00;60295.22;4990127;28;20201;-45
2023/08/30 11:05:20;;;;;;;7.68;6.43;;;;;;;-146.87;100.00;60295.22;4989707;28;20617;-46
2023/08/30 11:07:46;;;;;;;7.57;6.88;;;;;;;-146.87;100.00;60295.22;4981793;28;20270;-51